Time;durP1;ratioP1;P1;durP2;ratioP2;P2;SDS_P1;SDS_P2;PMS_P1;PMS_P2;Temp;Humidity;BMP_temperature;BMP_pressure;BME280_temperature;BME280_humidity;BME280_pressure;Samples;Min_cycle;Max_cycle;Signal;HPM_P1;HPM_P2
2022/07/31 00:01:55;;;;;;;1.07;1.00;;;;;;;21.58;60.96;100315.33;1717077;81;21086;-66
2022/07/31 00:04:27;;;;;;;4.05;1.27;;;;;;;21.57;60.15;100312.36;1746801;80;21038;-65
2022/07/31 00:06:53;;;;;;;1.95;0.95;;;;;;;21.61;60.26;100310.48;1720226;81;21043;-65
2022/07/31 00:09:20;;;;;;;3.60;1.17;;;;;;;21.61;60.03;100299.64;1762615;80;21054;-67
2022/07/31 00:11:46;;;;;;;2.50;0.80;;;;;;;21.63;59.77;100300.19;1737878;81;20995;-65
2022/07/31 00:14:13;;;;;;;3.67;1.15;;;;;;;21.63;59.75;100298.28;1733470;80;21100;-66
2022/07/31 00:16:39;;;;;;;1.50;1.27;;;;;;;21.64;59.65;100295.03;1740485;80;21592;-66
2022/07/31 00:19:06;;;;;;;1.47;1.32;;;;;;;21.62;59.55;100300.70;1737764;81;21034;-66
2022/07/31 00:21:32;;;;;;;1.52;0.90;;;;;;;21.61;59.42;100288.24;1733366;81;21066;-65
2022/07/31 00:23:59;;;;;;;2.30;0.90;;;;;;;21.62;59.38;100290.41;1722649;81;21557;-66
2022/07/31 00:26:25;;;;;;;3.40;1.47;;;;;;;21.59;59.52;100287.69;1740815;81;21509;-66
2022/07/31 00:28:51;;;;;;;2.30;1.10;;;;;;;21.57;59.46;100290.66;1760873;80;21085;-66
2022/07/31 00:31:17;;;;;;;3.17;1.40;;;;;;;21.55;59.53;100291.47;1767447;80;21110;-65
2022/07/31 00:33:44;;;;;;;1.75;0.82;;;;;;;21.55;59.53;100290.66;1725020;81;21017;-65
2022/07/31 00:36:12;;;;;;;1.47;0.85;;;;;;;21.54;59.51;100284.39;1738803;81;21593;-63
2022/07/31 00:38:38;;;;;;;4.92;0.85;;;;;;;21.53;59.48;100280.06;1765480;80;21545;-65
2022/07/31 00:41:04;;;;;;;1.17;0.90;;;;;;;21.52;59.37;100283.03;1757738;80;21051;-64
2022/07/31 00:43:31;;;;;;;1.67;1.00;;;;;;;21.50;59.30;100283.84;1759649;80;21064;-65
2022/07/31 00:45:58;;;;;;;0.93;0.88;;;;;;;21.48;59.13;100277.31;1756212;80;21431;-65
2022/07/31 00:48:26;;;;;;;0.78;0.78;;;;;;;21.46;59.07;100279.48;1756237;80;21085;-65
2022/07/31 00:50:52;;;;;;;1.27;1.17;;;;;;;21.41;58.97;100271.82;1765871;80;21566;-65
2022/07/31 00:53:18;;;;;;;4.08;1.17;;;;;;;21.38;58.88;100270.46;1739303;80;21080;-66
2022/07/31 00:55:45;;;;;;;1.07;0.80;;;;;;;21.37;58.83;100273.69;1767512;80;21021;-65
2022/07/31 00:58:11;;;;;;;1.30;0.90;;;;;;;21.35;58.66;100267.72;1723050;81;21023;-66
2022/07/31 01:00:37;;;;;;;2.15;0.88;;;;;;;21.32;58.64;100269.61;1762146;80;20996;-65
2022/07/31 01:03:03;;;;;;;0.90;0.90;;;;;;;21.29;58.60;100267.41;1764266;80;21081;-65
2022/07/31 01:05:30;;;;;;;1.25;0.50;;;;;;;21.26;58.38;100271.18;1731386;81;22053;-66
2022/07/31 01:07:58;;;;;;;0.75;0.53;;;;;;;21.25;58.38;100277.66;1765502;80;21554;-66
2022/07/31 01:10:42;;;;;;;2.92;0.70;;;;;;;21.25;58.40;100273.60;1767543;80;21030;-66
2022/07/31 01:13:16;;;;;;;2.77;0.90;;;;;;;21.22;58.37;100270.88;1758744;80;21518;-64
2022/07/31 01:15:46;;;;;;;0.65;0.50;;;;;;;21.20;58.25;100275.20;1758784;80;20997;-64
2022/07/31 01:18:13;;;;;;;5.35;0.93;;;;;;;21.19;58.18;100265.45;1742537;80;21013;-64
2022/07/31 01:20:43;;;;;;;1.27;0.60;;;;;;;21.17;57.99;100260.84;1763166;80;21084;-65
2022/07/31 01:23:39;;;;;;;0.60;0.37;;;;;;;21.17;57.83;100266.26;1741812;80;21071;-64
2022/07/31 01:26:25;;;;;;;0.85;0.50;;;;;;;21.18;57.56;100264.36;1734278;81;21007;-64
2022/07/31 01:29:16;;;;;;;2.67;0.78;;;;;;;21.17;57.33;100260.00;1737258;81;21043;-64
2022/07/31 01:31:52;;;;;;;3.45;0.80;;;;;;;21.15;57.34;100256.22;1764212;80;21018;-64
2022/07/31 01:34:43;;;;;;;0.85;0.70;;;;;;;21.11;57.48;100254.27;1723223;80;21024;-64
2022/07/31 01:37:24;;;;;;;1.62;1.10;;;;;;;21.08;57.52;100257.48;1725387;81;21022;-64
2022/07/31 01:40:02;;;;;;;4.87;1.22;;;;;;;21.04;57.42;100255.87;1720429;81;21585;-65
2022/07/31 01:42:30;;;;;;;2.95;0.90;;;;;;;21.02;57.32;100256.67;1730215;81;21606;-64
2022/07/31 01:45:00;;;;;;;1.12;1.02;;;;;;;21.00;57.32;100245.24;1767139;80;21545;-64
2022/07/31 01:47:29;;;;;;;4.60;1.32;;;;;;;20.94;57.13;100240.87;1757818;80;21149;-65
2022/07/31 01:49:59;;;;;;;1.07;0.82;;;;;;;20.91;57.17;100253.60;1760453;79;21018;-64
2022/07/31 01:52:28;;;;;;;2.25;0.65;;;;;;;20.87;57.21;100248.39;1765990;80;22205;-64
2022/07/31 01:54:57;;;;;;;1.17;0.90;;;;;;;20.83;57.01;100247.28;1727059;81;21058;-64
2022/07/31 01:57:25;;;;;;;0.90;0.55;;;;;;;20.76;57.30;100249.68;1756295;80;21104;-63
2022/07/31 02:00:00;;;;;;;2.08;0.40;;;;;;;20.69;57.10;100243.66;1748906;80;21564;-63
2022/07/31 02:02:33;;;;;;;0.68;0.50;;;;;;;20.64;56.23;100250.37;1751099;80;21474;-63
2022/07/31 02:05:06;;;;;;;1.77;0.57;;;;;;;20.63;56.75;100245.24;1792470;78;21503;-64
2022/07/31 02:07:39;;;;;;;1.87;0.70;;;;;;;20.61;56.52;100242.78;1803037;78;20986;-63
2022/07/31 02:10:10;;;;;;;0.62;0.60;;;;;;;20.58;56.51;100244.61;1767999;78;21511;-64
2022/07/31 02:12:37;;;;;;;0.40;0.35;;;;;;;20.57;55.92;100251.12;1791710;78;21050;-65
2022/07/31 02:15:08;;;;;;;0.95;0.40;;;;;;;20.55;56.18;100249.17;1771036;80;22164;-64
2022/07/31 02:17:38;;;;;;;2.50;0.33;;;;;;;20.53;55.91;100249.97;1783758;78;20997;-65
2022/07/31 02:20:15;;;;;;;0.60;0.60;;;;;;;20.53;55.92;100249.97;1753035;80;21007;-65
2022/07/31 02:22:41;;;;;;;2.22;0.53;;;;;;;20.53;55.63;100254.03;1747307;81;21581;-64
2022/07/31 02:25:09;;;;;;;;;;;;;;;20.56;55.65;100256.23;1790181;79;20994;-65
2022/07/31 02:27:39;;;;;;;1.65;0.37;;;;;;;20.54;55.27;100253.78;1766969;80;20453;-65
2022/07/31 02:30:07;;;;;;;2.75;0.30;;;;;;;20.54;55.42;100258.39;1739747;81;21046;-65
2022/07/31 02:32:36;;;;;;;1.87;0.45;;;;;;;20.53;55.27;100254.03;1735689;81;21041;-65
2022/07/31 02:35:05;;;;;;;2.35;0.40;;;;;;;20.51;55.12;100265.14;1784497;78;21060;-64
2022/07/31 02:37:34;;;;;;;0.78;0.35;;;;;;;20.54;54.91;100267.32;1797124;78;21089;-65
2022/07/31 02:40:02;;;;;;;3.05;0.35;;;;;;;20.57;54.88;100267.36;1758293;80;21050;-65
2022/07/31 02:42:29;;;;;;;1.50;0.28;;;;;;;20.60;54.64;100257.38;1733561;81;21060;-64
2022/07/31 02:44:56;;;;;;;0.65;0.20;;;;;;;20.62;54.57;100264.71;1741596;81;21015;-65
2022/07/31 02:47:23;;;;;;;0.47;0.33;;;;;;;20.64;54.54;100263.11;1736731;81;21061;-65
2022/07/31 02:49:50;;;;;;;1.07;0.20;;;;;;;20.67;54.42;100266.66;1763935;80;21127;-66
2022/07/31 02:52:17;;;;;;;1.00;0.65;;;;;;;20.68;54.23;100269.12;1766588;80;21013;-65
2022/07/31 02:54:45;;;;;;;3.85;0.30;;;;;;;20.69;54.23;100268.03;1743817;81;21003;-66
2022/07/31 02:57:11;;;;;;;1.82;0.50;;;;;;;20.67;54.14;100266.12;1804574;78;21061;-66
2022/07/31 02:59:38;;;;;;;0.30;0.20;;;;;;;20.68;54.17;100275.89;1804828;78;21106;-65
2022/07/31 03:02:06;;;;;;;1.95;0.95;;;;;;;20.69;54.29;100268.03;1806254;78;21467;-66
2022/07/31 03:04:35;;;;;;;6.55;0.72;;;;;;;20.71;54.23;100269.95;1805501;78;21084;-66
2022/07/31 03:07:01;;;;;;;0.78;0.50;;;;;;;20.75;54.08;100272.41;1804631;78;21085;-66
2022/07/31 03:09:29;;;;;;;5.87;0.23;;;;;;;20.76;53.69;100276.77;1804817;78;21074;-65
2022/07/31 03:11:58;;;;;;;2.72;0.20;;;;;;;20.84;53.52;100268.70;1803968;78;21042;-65
2022/07/31 03:14:26;;;;;;;0.40;0.30;;;;;;;21.07;53.22;100267.52;1804362;78;21061;-65
2022/07/31 03:16:52;;;;;;;0.78;0.20;;;;;;;21.46;52.11;100267.83;1805260;78;20970;-63
2022/07/31 03:19:20;;;;;;;0.78;0.25;;;;;;;21.84;50.93;100266.64;1805186;78;21058;-65
2022/07/31 03:21:48;;;;;;;2.02;0.20;;;;;;;22.16;49.60;100276.53;1805264;78;21015;-65
2022/07/31 03:24:16;;;;;;;3.60;0.20;;;;;;;22.45;49.13;100257.07;1774537;80;21005;-65
2022/07/31 03:26:42;;;;;;;1.95;0.30;;;;;;;22.91;47.46;100266.07;1766271;80;21105;-64
2022/07/31 03:29:09;;;;;;;1.82;0.20;;;;;;;23.21;46.66;100274.52;1766799;81;21005;-65
2022/07/31 03:31:36;;;;;;;4.10;0.53;;;;;;;23.44;45.82;100268.48;1765745;80;20958;-64
2022/07/31 03:34:03;;;;;;;1.00;0.20;;;;;;;23.69;45.69;100262.69;1766460;80;21041;-64
2022/07/31 03:36:30;;;;;;;1.00;0.20;;;;;;;23.94;44.50;100270.51;1765648;80;20958;-65
2022/07/31 03:38:58;;;;;;;0.78;0.20;;;;;;;23.93;44.22;100269.70;1766077;80;21462;-64
2022/07/31 03:41:27;;;;;;;2.55;0.20;;;;;;;23.95;44.38;100264.80;1770430;80;21058;-65
2022/07/31 03:43:53;;;;;;;0.28;0.20;;;;;;;24.13;43.94;100272.05;1747076;81;21462;-64
2022/07/31 03:46:21;;;;;;;1.40;0.28;;;;;;;24.40;43.80;100266.99;1796073;78;20971;-65
2022/07/31 03:48:50;;;;;;;1.45;0.10;;;;;;;24.82;43.25;100259.36;1795204;78;21054;-66
2022/07/31 03:51:18;;;;;;;1.27;0.20;;;;;;;25.34;41.32;100259.18;1793552;78;21038;-66
2022/07/31 03:53:46;;;;;;;0.90;0.20;;;;;;;25.59;40.79;100266.27;1795093;78;21476;-66
2022/07/31 03:56:16;;;;;;;0.57;0.20;;;;;;;25.54;40.73;100254.59;1722568;82;21107;-64
2022/07/31 03:58:42;;;;;;;0.40;0.10;;;;;;;25.59;40.99;100254.54;1795582;78;21483;-65
2022/07/31 04:01:10;;;;;;;2.55;0.65;;;;;;;25.82;40.46;100252.89;1796999;78;21095;-65
2022/07/31 04:03:37;;;;;;;0.80;0.13;;;;;;;26.25;39.42;100250.16;1798410;78;21783;-66
2022/07/31 04:06:17;;;;;;;1.07;0.20;;;;;;;26.54;38.83;100245.91;1794213;78;21102;-65
2022/07/31 04:08:44;;;;;;;1.00;0.13;;;;;;;26.78;38.87;100255.93;1795095;79;21017;-66
2022/07/31 04:11:12;;;;;;;0.70;0.42;;;;;;;26.95;38.18;100241.13;1796573;78;21084;-66
2022/07/31 04:13:39;;;;;;;3.90;0.20;;;;;;;27.16;37.41;100250.34;1793204;79;21066;-64
2022/07/31 04:16:06;;;;;;;0.20;0.10;;;;;;;27.29;37.05;100240.00;1795436;79;20953;-65
2022/07/31 04:20:38;;;;;;;0.35;0.10;;;;;;;27.43;36.91;100233.75;1817046;77;23001;-66
2022/07/31 04:23:04;;;;;;;0.85;0.20;;;;;;;27.83;36.12;100240.87;1742172;79;21044;-66
2022/07/31 04:25:49;;;;;;;0.55;0.20;;;;;;;28.29;35.48;100242.06;1693006;84;21060;-65
2022/07/31 04:28:17;;;;;;;2.58;0.20;;;;;;;28.58;34.22;100246.91;1693248;84;21088;-65
2022/07/31 04:30:44;;;;;;;0.88;0.20;;;;;;;28.48;34.17;100250.66;1676005;84;21209;-66
2022/07/31 04:33:10;;;;;;;1.77;0.10;;;;;;;28.23;34.50;100253.44;1698207;81;21093;-65
2022/07/31 04:35:36;;;;;;;2.08;0.28;;;;;;;27.94;35.14;100249.95;1747073;81;21030;-65
2022/07/31 04:38:03;;;;;;;0.65;0.20;;;;;;;27.76;35.63;100244.84;1746709;81;21049;-65
2022/07/31 04:40:32;;;;;;;2.02;0.20;;;;;;;27.57;36.08;100236.71;1747271;81;21104;-66
2022/07/31 04:42:58;;;;;;;2.25;0.20;;;;;;;27.55;36.13;100243.62;1747015;81;21046;-65
2022/07/31 04:45:24;;;;;;;2.22;0.20;;;;;;;27.61;36.29;100239.66;1718685;80;21005;-66
2022/07/31 04:47:52;;;;;;;7.75;0.62;;;;;;;27.54;36.32;100240.08;1698225;84;21049;-66
2022/07/31 04:50:18;;;;;;;1.37;0.20;;;;;;;27.49;36.56;100236.06;1699539;84;21054;-66
2022/07/31 04:52:47;;;;;;;0.53;0.20;;;;;;;27.57;36.76;100242.19;1695038;84;22292;-70
2022/07/31 04:55:13;;;;;;;2.22;0.28;;;;;;;27.76;35.95;100237.99;1698641;81;21090;-73
2022/07/31 04:57:40;;;;;;;3.87;0.17;;;;;;;27.84;36.01;100249.31;1748223;81;21051;-71
2022/07/31 05:00:10;;;;;;;0.57;0.10;;;;;;;27.56;36.00;100239.78;1745107;81;21033;-72
2022/07/31 05:02:37;;;;;;;1.20;0.33;;;;;;;27.21;36.68;100252.99;1739063;81;21032;-71
2022/07/31 05:05:05;;;;;;;0.60;0.10;;;;;;;27.20;37.29;100243.18;1740097;81;21028;-74
2022/07/31 05:07:34;;;;;;;3.00;0.20;;;;;;;27.53;36.98;100248.59;1741611;81;21065;-70
2022/07/31 05:10:04;;;;;;;1.12;0.30;;;;;;;27.99;35.56;100241.36;1687368;83;21065;-72
2022/07/31 05:12:31;;;;;;;0.45;0.10;;;;;;;28.09;35.23;100249.38;1704852;82;21129;-71
2022/07/31 05:14:57;;;;;;;1.40;0.10;;;;;;;28.17;34.95;100236.87;1719326;83;21089;-71
2022/07/31 05:17:23;;;;;;;2.52;0.35;;;;;;;28.26;35.19;100229.53;1715593;83;21096;-72
2022/07/31 05:19:52;;;;;;;0.50;0.13;;;;;;;28.12;35.39;100234.50;1720349;83;21133;-72
2022/07/31 05:22:20;;;;;;;4.03;0.42;;;;;;;28.20;35.54;100229.38;1703815;83;21007;-73
2022/07/31 05:24:50;;;;;;;1.65;0.10;;;;;;;28.15;35.11;100226.22;1683468;84;21403;-71
2022/07/31 05:27:17;;;;;;;0.30;0.10;;;;;;;27.86;35.87;100224.63;1688172;84;21104;-73
2022/07/31 05:29:43;;;;;;;0.53;0.15;;;;;;;27.76;35.55;100229.78;1687403;84;21022;-70
2022/07/31 05:32:10;;;;;;;0.70;0.30;;;;;;;27.61;36.09;100227.90;1686786;84;20979;-69
2022/07/31 05:34:37;;;;;;;1.20;0.30;;;;;;;27.71;36.12;100223.03;1653169;85;22147;-69
2022/07/31 05:37:03;;;;;;;2.72;0.10;;;;;;;27.92;36.02;100223.42;1659078;85;21036;-70
2022/07/31 05:39:32;;;;;;;0.45;0.20;;;;;;;27.87;35.86;100229.55;1661153;85;21595;-70
2022/07/31 05:42:17;;;;;;;1.92;0.47;;;;;;;27.54;36.04;100216.00;1691144;84;21090;-65
2022/07/31 05:45:02;;;;;;;0.40;0.10;;;;;;;27.06;37.01;100224.55;1690564;82;21626;-69
2022/07/31 05:47:28;;;;;;;6.67;0.20;;;;;;;26.94;37.53;100229.15;1676713;84;21481;-70
2022/07/31 05:49:55;;;;;;;1.82;0.20;;;;;;;27.18;37.49;100228.96;1687207;84;21146;-71
2022/07/31 05:52:21;;;;;;;0.50;0.20;;;;;;;27.64;36.59;100232.78;1679008;84;21097;-70
2022/07/31 05:54:49;;;;;;;0.53;0.10;;;;;;;28.02;35.98;100230.61;1669504;85;21081;-68
2022/07/31 05:57:18;;;;;;;2.52;0.10;;;;;;;28.37;34.88;100226.80;1659817;84;21095;-71
2022/07/31 05:59:46;;;;;;;4.50;0.10;;;;;;;28.44;34.54;100234.02;1686857;83;21102;-70
2022/07/31 06:02:12;;;;;;;2.37;0.37;;;;;;;28.31;35.17;100232.14;1661792;85;21025;-72
2022/07/31 06:04:52;;;;;;;2.05;0.10;;;;;;;28.35;35.11;100224.94;1675931;85;21373;-73
2022/07/31 06:07:18;;;;;;;1.67;0.30;;;;;;;28.66;34.55;100226.39;1636797;86;21509;-70
2022/07/31 06:09:47;;;;;;;0.50;0.20;;;;;;;28.79;34.31;100219.78;1663011;86;21128;-71
2022/07/31 06:12:13;;;;;;;0.72;0.20;;;;;;;28.80;34.99;100216.73;1659600;85;21042;-70
2022/07/31 06:14:39;;;;;;;1.82;0.20;;;;;;;28.69;34.31;100223.03;1664959;85;21049;-70
2022/07/31 06:17:07;;;;;;;1.00;0.10;;;;;;;28.73;34.46;100232.81;1665698;85;21585;-71
2022/07/31 06:19:34;;;;;;;0.30;0.20;;;;;;;28.81;34.21;100232.05;1665463;85;21563;-72
2022/07/31 06:22:00;;;;;;;2.92;0.13;;;;;;;28.82;34.60;100235.05;1663646;85;21341;-70
2022/07/31 06:24:28;;;;;;;2.02;0.30;;;;;;;28.73;34.04;100238.30;1660010;85;21170;-70
2022/07/31 06:26:59;;;;;;;2.30;0.10;;;;;;;28.52;34.58;100228.41;1662207;85;21641;-73
2022/07/31 06:29:27;;;;;;;2.35;0.10;;;;;;;28.43;34.97;100229.67;1660659;85;20995;-73
2022/07/31 06:31:55;;;;;;;0.55;0.17;;;;;;;28.45;35.69;100226.05;1659638;85;21040;-70
2022/07/31 06:34:23;;;;;;;3.22;0.30;;;;;;;28.54;35.23;100226.16;1684029;83;21035;-69
2022/07/31 06:36:50;;;;;;;2.33;0.20;;;;;;;28.59;35.33;100226.01;1688522;83;21008;-71
2022/07/31 06:39:19;;;;;;;3.80;0.20;;;;;;;28.59;35.28;100221.09;1687652;83;21039;-74
2022/07/31 06:42:04;;;;;;;3.22;0.13;;;;;;;28.59;35.33;100217.78;1697859;83;21035;-81
2022/07/31 06:44:33;;;;;;;1.55;0.20;;;;;;;28.49;35.26;100213.91;1693193;83;21115;-77
2022/07/31 06:47:17;;;;;;;0.20;0.10;;;;;;;28.56;35.83;100207.45;1687028;84;21070;-76
2022/07/31 06:49:48;;;;;;;0.95;0.10;;;;;;;28.72;35.33;100205.12;1686937;84;21024;-71
2022/07/31 06:52:14;;;;;;;3.90;0.20;;;;;;;28.89;32.89;100201.67;1687858;84;21051;-73
2022/07/31 06:54:42;;;;;;;1.52;0.10;;;;;;;28.86;33.08;100189.41;1686721;84;21009;-73
2022/07/31 06:57:12;;;;;;;0.98;0.10;;;;;;;28.66;32.84;100189.94;1682506;84;21248;-72
2022/07/31 06:59:39;;;;;;;0.50;0.10;;;;;;;28.41;33.46;100197.64;1680235;84;21040;-73
2022/07/31 07:02:07;;;;;;;0.70;0.17;;;;;;;28.32;33.41;100189.34;1679288;84;21074;-72
2022/07/31 07:04:33;;;;;;;8.88;0.42;;;;;;;28.34;33.27;100187.67;1694925;83;21566;-71
2022/07/31 07:07:00;;;;;;;1.22;0.25;;;;;;;28.47;33.43;100184.62;1689009;83;21131;-74
2022/07/31 07:09:26;;;;;;;0.60;0.10;;;;;;;28.73;33.08;100176.59;1686083;83;21050;-76
2022/07/31 07:11:53;;;;;;;3.45;0.13;;;;;;;28.76;32.52;100185.55;1694632;84;21034;-79
2022/07/31 07:14:19;;;;;;;0.20;0.10;;;;;;;28.69;32.16;100170.92;1694416;83;21481;-77
2022/07/31 07:16:46;;;;;;;1.98;0.10;;;;;;;28.72;32.39;100176.33;1695363;83;21106;-77
2022/07/31 07:19:13;;;;;;;4.15;0.17;;;;;;;28.76;32.56;100179.26;1693747;83;21531;-73
2022/07/31 07:21:39;;;;;;;0.98;0.10;;;;;;;28.91;32.21;100177.48;1680646;83;21064;-74
2022/07/31 07:24:08;;;;;;;3.50;0.10;;;;;;;29.20;31.46;100182.48;1694408;83;21067;-74
2022/07/31 07:26:36;;;;;;;0.75;0.20;;;;;;;29.51;30.91;100184.34;1681416;83;21084;-73
2022/07/31 07:29:03;;;;;;;0.42;0.10;;;;;;;29.52;30.94;100168.12;1689002;84;21135;-69
2022/07/31 07:31:30;;;;;;;1.57;0.10;;;;;;;29.36;31.42;100162.26;1689734;83;21082;-70
2022/07/31 07:33:57;;;;;;;2.30;0.10;;;;;;;28.93;31.27;100191.14;1687796;83;21511;-76
2022/07/31 07:36:23;;;;;;;0.20;0.10;;;;;;;28.39;32.34;100181.25;1691440;84;21103;-74
2022/07/31 07:38:53;;;;;;;1.77;0.10;;;;;;;28.14;32.63;100179.37;1667828;83;21012;-74
2022/07/31 07:41:20;;;;;;;0.13;0.10;;;;;;;28.01;32.75;100196.13;1686226;83;21085;-75
2022/07/31 07:43:46;;;;;;;0.98;0.10;;;;;;;27.81;33.84;100176.01;1656056;85;21150;-74
2022/07/31 07:46:12;;;;;;;3.02;0.10;;;;;;;27.76;33.88;100165.42;1691037;83;21089;-68
2022/07/31 07:48:40;;;;;;;0.57;0.10;;;;;;;27.49;33.52;100147.67;1679222;84;21175;-72
2022/07/31 07:51:08;;;;;;;2.47;0.10;;;;;;;27.68;34.22;100177.09;1684638;84;21111;-72
2022/07/31 07:53:39;;;;;;;1.92;0.13;;;;;;;27.64;33.38;100170.61;1684403;83;21086;-72
2022/07/31 07:56:15;;;;;;;0.40;0.10;;;;;;;27.68;33.55;100177.09;1691354;83;21102;-72
2022/07/31 07:58:50;;;;;;;2.72;0.30;;;;;;;27.69;33.82;100174.61;1688303;84;21098;-72
2022/07/31 08:01:35;;;;;;;1.27;0.20;;;;;;;27.75;33.73;100167.90;1690682;83;21465;-71
2022/07/31 08:04:04;;;;;;;1.27;0.10;;;;;;;27.80;33.88;100174.38;1682098;83;21059;-72
2022/07/31 08:06:31;;;;;;;0.40;0.10;;;;;;;27.79;33.88;100176.31;1694572;84;21104;-73
2022/07/31 08:08:57;;;;;;;2.47;0.10;;;;;;;27.72;33.95;100167.14;1663352;85;21142;-73
2022/07/31 08:11:43;;;;;;;3.62;0.10;;;;;;;27.70;34.24;100165.27;1656896;84;21110;-72
2022/07/31 08:14:12;;;;;;;0.93;0.17;;;;;;;27.77;34.06;100158.81;1683181;84;21074;-74
2022/07/31 08:16:45;;;;;;;2.35;0.13;;;;;;;27.81;33.89;100165.86;1643124;84;21065;-72
2022/07/31 08:19:12;;;;;;;1.00;0.10;;;;;;;27.87;33.51;100168.72;1687646;84;21080;-71
2022/07/31 08:21:38;;;;;;;3.00;0.20;;;;;;;27.89;33.20;100158.30;1659158;84;21181;-72
2022/07/31 08:24:06;;;;;;;3.08;0.10;;;;;;;27.69;33.43;100158.19;1695595;83;21087;-72
2022/07/31 08:29:17;;;;;;;3.70;0.13;;;;;;;27.62;34.04;100156.42;1693540;83;20974;-73
2022/07/31 08:31:44;;;;;;;3.05;0.28;;;;;;;27.58;33.58;100156.78;1658014;85;20966;-73
2022/07/31 08:34:15;;;;;;;2.92;0.40;;;;;;;27.54;33.96;100155.22;1688318;83;20964;-74
2022/07/31 08:36:42;;;;;;;8.00;0.42;;;;;;;27.51;34.39;100170.08;1681395;84;21046;-73
2022/07/31 08:39:09;;;;;;;3.20;0.20;;;;;;;27.53;34.27;100156.89;1699375;84;21099;-74
2022/07/31 08:41:46;;;;;;;0.78;0.10;;;;;;;27.52;33.46;100162.09;1658186;85;21071;-74
2022/07/31 08:44:15;;;;;;;2.27;0.10;;;;;;;27.50;32.78;100155.59;1666625;85;21057;-73
2022/07/31 08:46:44;;;;;;;0.20;0.10;;;;;;;27.52;32.43;100151.14;1698450;83;21080;-73
2022/07/31 08:49:15;;;;;;;0.50;0.10;;;;;;;27.54;33.01;100144.27;1683742;83;21097;-73
2022/07/31 08:51:44;;;;;;;1.35;0.10;;;;;;;27.65;32.77;100158.55;1671399;84;22191;-73
2022/07/31 08:54:14;;;;;;;1.12;0.10;;;;;;;27.71;33.02;100137.34;1682250;83;21113;-73
2022/07/31 08:56:42;;;;;;;0.55;0.10;;;;;;;27.70;32.78;100155.68;1684697;83;21572;-73
2022/07/31 08:59:08;;;;;;;0.60;0.10;;;;;;;27.67;32.38;100134.95;1657153;84;21077;-74
2022/07/31 09:01:35;;;;;;;1.00;0.35;;;;;;;27.63;32.03;100133.95;1674423;83;21584;-74
2022/07/31 09:04:02;;;;;;;0.82;0.10;;;;;;;27.69;32.16;100146.41;1657646;84;21537;-71
2022/07/31 09:06:30;;;;;;;1.05;0.10;;;;;;;27.80;32.26;100125.88;1682734;83;22274;-72
2022/07/31 09:08:58;;;;;;;2.58;0.10;;;;;;;27.87;31.56;100118.63;1689134;83;21132;-74
2022/07/31 09:11:25;;;;;;;5.53;0.30;;;;;;;27.84;32.25;100129.65;1697991;83;21049;-73
2022/07/31 09:14:09;;;;;;;5.45;0.35;;;;;;;27.81;32.28;100120.67;1667977;84;21080;-73
2022/07/31 09:16:47;;;;;;;2.42;0.10;;;;;;;27.81;31.97;100106.18;1682665;84;21064;-73
2022/07/31 09:19:16;;;;;;;0.75;0.10;;;;;;;27.89;31.64;100115.05;1682609;84;21037;-75
2022/07/31 09:21:44;;;;;;;1.42;0.10;;;;;;;28.02;30.46;100116.92;1683239;84;21033;-74
2022/07/31 09:24:16;;;;;;;1.15;0.10;;;;;;;28.03;30.54;100128.68;1669069;84;21041;-74
2022/07/31 09:26:43;;;;;;;1.75;0.15;;;;;;;27.92;30.16;100107.59;1702772;83;21000;-72
2022/07/31 09:29:12;;;;;;;0.40;0.10;;;;;;;27.88;30.78;100108.73;1697745;83;21558;-72
2022/07/31 09:31:39;;;;;;;1.95;0.13;;;;;;;27.89;31.76;100117.78;1695311;83;21029;-75
2022/07/31 09:34:07;;;;;;;2.50;0.10;;;;;;;27.91;31.83;100110.06;1681098;83;21104;-73
2022/07/31 09:36:40;;;;;;;0.75;0.20;;;;;;;27.92;31.36;100096.63;1671481;86;21030;-72
2022/07/31 09:39:24;;;;;;;2.85;0.25;;;;;;;27.97;31.14;100106.08;1680378;84;21084;-74
2022/07/31 09:42:09;;;;;;;0.60;0.20;;;;;;;28.01;31.47;100110.38;1683277;84;21093;-74
2022/07/31 09:44:46;;;;;;;2.10;0.10;;;;;;;28.07;31.67;100103.11;1666187;84;21110;-73
2022/07/31 09:47:26;;;;;;;0.68;0.10;;;;;;;28.17;30.96;100112.20;1683631;84;21615;-74
2022/07/31 09:50:02;;;;;;;2.67;0.15;;;;;;;28.24;31.17;100111.20;1672789;84;21026;-72
2022/07/31 09:52:31;;;;;;;2.65;0.10;;;;;;;28.25;31.33;100103.22;1684336;84;20980;-73
2022/07/31 09:55:11;;;;;;;2.15;0.30;;;;;;;28.26;31.55;100103.48;1683315;84;21145;-74
2022/07/31 09:57:40;;;;;;;0.42;0.20;;;;;;;28.28;31.65;100095.75;1681125;84;21111;-72
2022/07/31 10:00:09;;;;;;;2.65;0.20;;;;;;;28.34;31.59;100083.52;1683403;84;21017;-74
2022/07/31 10:02:38;;;;;;;2.27;0.33;;;;;;;28.39;31.08;100097.64;1681919;84;21572;-73
2022/07/31 10:05:07;;;;;;;0.60;0.10;;;;;;;28.30;31.46;100086.08;1684576;84;21521;-72
2022/07/31 10:07:37;;;;;;;1.67;0.20;;;;;;;28.25;31.77;100088.94;1675691;84;21648;-73
2022/07/31 10:10:11;;;;;;;4.12;0.40;;;;;;;28.27;31.92;100083.16;1701657;83;21107;-73
2022/07/31 10:12:48;;;;;;;1.30;0.30;;;;;;;28.37;31.34;100112.23;1685892;83;21589;-72
2022/07/31 10:15:17;;;;;;;1.65;0.20;;;;;;;28.27;31.22;100090.01;1703339;83;21512;-73
2022/07/31 10:17:49;;;;;;;2.83;0.20;;;;;;;28.18;31.89;100083.12;1687300;83;21092;-73
2022/07/31 10:20:21;;;;;;;1.00;0.30;;;;;;;28.19;31.93;100075.13;1693409;83;21075;-73
2022/07/31 10:23:10;;;;;;;3.37;0.13;;;;;;;28.26;31.98;100074.70;1676223;81;21492;-73
2022/07/31 10:25:42;;;;;;;2.33;0.30;;;;;;;28.36;31.80;100073.05;1698668;83;21099;-73
2022/07/31 10:28:09;;;;;;;1.45;0.23;;;;;;;28.44;31.29;100083.25;1699837;83;21505;-72
2022/07/31 10:30:37;;;;;;;0.78;0.10;;;;;;;28.31;31.64;100072.64;1697758;83;21048;-72
2022/07/31 10:33:07;;;;;;;1.37;0.10;;;;;;;28.24;31.74;100064.63;1696797;83;21052;-73
2022/07/31 10:36:00;;;;;;;0.20;0.10;;;;;;;28.18;32.27;100059.00;1695002;83;21548;-73
2022/07/31 10:39:01;;;;;;;0.50;0.10;;;;;;;28.15;32.33;100058.50;1693652;83;21047;-75
2022/07/31 10:42:08;;;;;;;1.45;0.10;;;;;;;28.17;32.66;100050.55;1689062;83;21073;-71
2022/07/31 10:44:45;;;;;;;1.75;0.40;;;;;;;28.25;32.84;100055.26;1691501;83;21099;-73
2022/07/31 10:47:16;;;;;;;12.20;0.35;;;;;;;28.37;32.41;100062.35;1696020;83;21017;-73
2022/07/31 10:50:02;;;;;;;1.20;0.20;;;;;;;28.41;32.47;100060.59;1687949;83;21052;-72
2022/07/31 10:52:36;;;;;;;3.40;0.20;;;;;;;28.47;32.45;100048.93;1668446;83;21020;-73
2022/07/31 10:55:21;;;;;;;1.30;0.10;;;;;;;28.50;32.63;100049.11;1671213;84;21109;-74
2022/07/31 10:58:14;;;;;;;3.50;0.23;;;;;;;28.53;32.92;100053.97;1697035;83;21068;-73
2022/07/31 11:01:08;;;;;;;1.60;0.10;;;;;;;28.54;32.96;100046.58;1688153;83;21020;-72
2022/07/31 11:03:45;;;;;;;1.00;0.10;;;;;;;28.51;33.30;100041.12;1692635;83;21052;-72
2022/07/31 11:06:23;;;;;;;0.82;0.28;;;;;;;28.50;33.41;100043.63;1683969;83;21092;-74
2022/07/31 11:08:57;;;;;;;;;;;;;;;28.53;33.28;100049.06;1696945;83;21059;-75
2022/07/31 11:11:41;;;;;;;2.37;0.30;;;;;;;28.44;33.41;100046.81;1587070;89;20188;-73
2022/07/31 11:14:34;;;;;;;2.05;0.35;;;;;;;28.32;33.63;100035.88;1671066;84;21041;-72
2022/07/31 11:17:08;;;;;;;2.15;0.20;;;;;;;28.34;34.06;100032.25;1662090;84;21506;-72
2022/07/31 11:19:39;;;;;;;2.15;0.23;;;;;;;28.40;34.10;100030.75;1678762;84;21552;-73
2022/07/31 11:22:13;;;;;;;1.32;0.20;;;;;;;28.44;33.99;100016.09;1698128;83;21297;-73
2022/07/31 11:24:39;;;;;;;2.30;0.10;;;;;;;28.50;34.02;100031.30;1667565;86;21044;-73
2022/07/31 11:27:06;;;;;;;0.65;0.10;;;;;;;28.58;32.52;100028.37;1674984;84;20990;-73
2022/07/31 11:29:38;;;;;;;0.98;0.10;;;;;;;28.65;31.94;100036.12;1696887;83;21131;-73
2022/07/31 11:32:13;;;;;;;1.20;0.30;;;;;;;28.69;31.89;100023.41;1697709;83;21489;-73
2022/07/31 11:34:55;;;;;;;3.52;0.20;;;;;;;28.71;32.59;100004.70;1669028;83;21543;-74
2022/07/31 11:37:24;;;;;;;0.20;0.10;;;;;;;28.72;32.73;100015.33;1665639;84;21527;-73
2022/07/31 11:39:53;;;;;;;1.32;0.20;;;;;;;28.76;32.29;100010.59;1670274;84;21054;-73
2022/07/31 11:42:22;;;;;;;6.12;0.28;;;;;;;28.76;32.22;100025.67;1698215;83;21143;-72
2022/07/31 11:44:49;;;;;;;2.80;0.30;;;;;;;28.72;31.97;100011.80;1671695;84;21475;-72
2022/07/31 11:47:15;;;;;;;2.85;0.40;;;;;;;28.69;31.95;100010.50;1697246;83;21456;-73